Time;durP1;ratioP1;P1;durP2;ratioP2;P2;SDS_P1;SDS_P2;PMS_P1;PMS_P2;Temp;Humidity;BMP_temperature;BMP_pressure;BME280_temperature;BME280_humidity;BME280_pressure;Samples;Min_cycle;Max_cycle;Signal;HPM_P1;HPM_P2
2022/08/12 00:43:20;;;;;;;5.03;4.53;;;;;;;17.92;64.02;100805.78;5050861;28;20456;-78
2022/08/12 00:48:31;;;;;;;4.80;4.00;;;;;;;17.78;64.06;100807.31;5048518;28;20476;-79
2022/08/12 00:50:59;;;;;;;9.63;4.50;;;;;;;17.72;63.34;100802.59;5063129;28;20524;-79
2022/08/12 00:53:27;;;;;;;5.67;3.80;;;;;;;17.73;63.64;100809.69;5052148;28;20500;-77
2022/08/12 00:55:57;;;;;;;4.80;3.87;;;;;;;17.75;63.88;100821.16;5055786;28;20481;-77
2022/08/12 00:58:25;;;;;;;4.30;3.90;;;;;;;17.77;64.06;100817.25;5046772;28;20483;-78
2022/08/12 01:00:52;;;;;;;4.83;4.40;;;;;;;17.70;64.90;100813.56;5055752;28;20466;-78
2022/08/12 01:03:20;;;;;;;4.73;4.00;;;;;;;17.66;64.55;100814.94;5044337;28;20959;-77
2022/08/12 01:11:31;;;;;;;5.20;3.80;;;;;;;17.59;63.69;100806.69;5053880;28;20833;-77
2022/08/12 01:13:59;;;;;;;5.70;3.80;;;;;;;17.53;64.14;100809.22;5050381;28;20464;-77
2022/08/12 01:16:26;;;;;;;5.60;4.20;;;;;;;17.56;64.39;100808.88;5055864;28;20490;-77
2022/08/12 01:18:54;;;;;;;5.53;3.97;;;;;;;17.53;64.15;100809.22;5054169;28;20507;-78
2022/08/12 01:21:40;;;;;;;10.10;4.00;;;;;;;17.44;63.35;100805.69;5048419;28;20478;-79
2022/08/12 01:24:16;;;;;;;8.63;5.17;;;;;;;17.44;65.09;100808.41;5047067;28;20449;-78
2022/08/12 01:26:46;;;;;;;5.30;4.47;;;;;;;17.37;65.43;100807.41;5060893;28;20484;-78
2022/08/12 01:29:14;;;;;;;5.57;3.80;;;;;;;17.31;65.02;100798.97;5058042;28;20485;-78
2022/08/12 01:31:41;;;;;;;5.43;4.27;;;;;;;17.23;64.42;100798.13;5041774;28;20994;-78
2022/08/12 01:34:09;;;;;;;4.90;4.40;;;;;;;17.30;64.20;100810.78;5043468;28;20461;-79
2022/08/12 01:36:40;;;;;;;5.60;3.50;;;;;;;17.22;64.86;100800.00;5056676;28;20476;-78
2022/08/12 01:39:08;;;;;;;5.53;4.20;;;;;;;17.14;64.41;100797.28;5061604;28;20535;-78
2022/08/12 01:41:38;;;;;;;4.83;3.60;;;;;;;17.13;64.45;100804.56;5061378;28;20934;-79
2022/08/12 01:44:07;;;;;;;6.10;4.03;;;;;;;17.18;64.34;100795.94;5062018;28;20493;-79
2022/08/12 01:46:39;;;;;;;4.83;4.23;;;;;;;17.16;63.67;100794.44;5058919;28;20476;-79
2022/08/12 01:49:17;;;;;;;4.03;3.73;;;;;;;17.15;64.03;100800.81;5059373;28;20437;-78
2022/08/12 01:51:46;;;;;;;4.50;4.10;;;;;;;17.13;64.34;100801.88;5049883;28;20520;-79
2022/08/12 01:54:15;;;;;;;5.33;3.73;;;;;;;17.10;64.16;100801.34;5062033;28;20492;-79
2022/08/12 01:56:45;;;;;;;15.73;4.40;;;;;;;17.10;65.03;100796.78;5058168;28;20652;-79
2022/08/12 02:02:04;;;;;;;4.73;4.10;;;;;;;17.05;65.26;100787.50;5053755;28;20483;-79
2022/08/12 02:13:34;;;;;;;4.77;4.03;;;;;;;16.89;66.26;100797.31;5056975;28;20443;-78
2022/08/12 02:16:06;;;;;;;5.30;4.40;;;;;;;16.71;67.71;100805.50;5044338;28;20473;-77
2022/08/12 02:18:43;;;;;;;5.60;4.17;;;;;;;16.70;67.68;100800.28;5061910;28;21049;-77
2022/08/12 02:21:20;;;;;;;5.33;4.27;;;;;;;16.65;68.07;100798.09;5047796;28;20473;-77
2022/08/12 02:23:48;;;;;;;5.50;4.93;;;;;;;16.67;68.38;100806.03;5061027;28;20452;-78
2022/08/12 02:26:15;;;;;;;6.63;4.30;;;;;;;16.68;68.46;100807.72;5060001;28;20484;-77
2022/08/12 02:28:42;;;;;;;5.20;4.40;;;;;;;16.73;67.87;100799.94;5060906;28;20474;-77
2022/08/12 02:31:11;;;;;;;6.73;4.63;;;;;;;16.59;68.42;100795.22;5046784;28;20527;-78
2022/08/12 02:33:38;;;;;;;7.03;4.43;;;;;;;16.50;68.61;100792.50;5054129;28;20616;-77
2022/08/12 02:36:06;;;;;;;5.97;4.43;;;;;;;16.48;69.41;100793.69;5049460;28;20470;-77
2022/08/12 02:38:33;;;;;;;6.63;3.97;;;;;;;16.66;70.33;100799.78;5057275;28;20481;-77
2022/08/12 02:41:04;;;;;;;4.23;3.80;;;;;;;16.81;69.27;100799.13;5046737;28;20512;-78
2022/08/12 02:43:36;;;;;;;6.20;4.10;;;;;;;16.80;69.51;100800.97;5061301;28;20800;-77
2022/08/12 02:46:04;;;;;;;5.30;4.80;;;;;;;16.84;68.43;100801.50;5047540;28;20470;-78
2022/08/12 02:48:35;;;;;;;7.63;4.10;;;;;;;16.76;69.08;100796.91;5042096;28;21337;-77
2022/08/12 02:51:05;;;;;;;5.67;4.37;;;;;;;16.89;68.86;100796.44;5054546;28;20478;-77
2022/08/12 02:53:33;;;;;;;4.83;4.30;;;;;;;16.90;67.61;100798.97;5052113;28;20445;-77
2022/08/12 02:56:01;;;;;;;4.70;4.20;;;;;;;17.00;68.28;100801.53;5046565;28;20497;-79
2022/08/12 02:58:30;;;;;;;4.50;4.10;;;;;;;16.92;67.23;100799.66;5058345;28;20533;-80
2022/08/12 03:01:00;;;;;;;9.63;4.67;;;;;;;16.73;68.27;100797.25;5045931;28;20507;-79
2022/08/12 03:03:30;;;;;;;5.90;4.60;;;;;;;16.71;67.78;100801.97;5061814;28;20452;-79
2022/08/12 03:06:00;;;;;;;5.23;4.00;;;;;;;16.62;67.57;100803.00;5059522;28;20491;-80
2022/08/12 03:08:30;;;;;;;6.00;4.70;;;;;;;16.53;67.28;100799.44;5062297;28;20460;-78
2022/08/12 03:11:02;;;;;;;6.10;4.30;;;;;;;16.59;68.99;100795.22;5045558;28;20472;-78
2022/08/12 03:13:29;;;;;;;4.57;4.17;;;;;;;16.63;69.07;100799.25;5061648;28;20757;-78
2022/08/12 03:15:56;;;;;;;5.10;4.57;;;;;;;16.67;68.17;100806.03;5048730;28;20481;-78
2022/08/12 03:18:28;;;;;;;5.90;4.63;;;;;;;16.63;68.93;100800.13;5060547;28;20448;-79
2022/08/12 03:20:56;;;;;;;6.67;4.70;;;;;;;16.61;69.00;100798.59;5064171;28;20476;-81
2022/08/12 03:23:25;;;;;;;4.90;4.40;;;;;;;16.63;68.56;100797.44;5064628;28;20516;-81
2022/08/12 03:25:52;;;;;;;5.47;3.93;;;;;;;16.59;68.98;100803.31;5062069;28;20477;-81
2022/08/12 03:31:01;;;;;;;4.73;4.33;;;;;;;16.60;68.10;100799.63;5060036;28;20472;-80
2022/08/12 03:33:29;;;;;;;4.60;4.20;;;;;;;16.49;67.44;100796.22;5045051;28;20477;-80
2022/08/12 03:35:58;;;;;;;7.43;4.50;;;;;;;16.43;67.68;100796.88;5053852;28;20511;-80
2022/08/12 03:38:27;;;;;;;4.90;4.23;;;;;;;16.23;67.97;100795.47;5050279;28;20610;-84
2022/08/12 04:00:28;;;;;;;5.60;5.00;;;;;;;16.09;69.69;100796.94;5059031;28;20520;-82
2022/08/12 04:02:57;;;;;;;5.20;4.80;;;;;;;16.05;69.86;100807.22;5051576;28;20448;-83
2022/08/12 04:05:25;;;;;;;5.00;4.43;;;;;;;16.27;69.54;100802.25;5060704;28;20508;-82
2022/08/12 04:07:52;;;;;;;5.20;4.70;;;;;;;16.15;69.75;100799.84;5051009;28;20449;-82
2022/08/12 04:10:20;;;;;;;14.03;4.70;;;;;;;16.23;70.37;100798.16;5050950;28;20479;-81
2022/08/12 04:15:40;;;;;;;5.43;4.87;;;;;;;16.66;68.04;100798.94;5058832;28;20464;-78
2022/08/12 04:18:07;;;;;;;5.43;4.93;;;;;;;16.96;66.73;100802.03;5056862;28;20453;-77
2022/08/12 04:20:33;;;;;;;8.20;5.00;;;;;;;17.09;66.53;100799.66;5043283;28;20497;-78
2022/08/12 04:23:01;;;;;;;7.00;5.00;;;;;;;17.37;64.97;100797.41;5050089;28;20507;-77
2022/08/12 04:25:30;;;;;;;5.70;5.00;;;;;;;17.18;65.50;100797.78;5060780;28;20476;-77
2022/08/12 04:27:56;;;;;;;6.60;4.37;;;;;;;17.08;65.90;100795.25;5057633;28;20884;-77
2022/08/12 04:30:23;;;;;;;5.60;5.10;;;;;;;17.30;65.61;100799.97;5060611;28;20476;-72
2022/08/12 04:32:50;;;;;;;5.33;4.83;;;;;;;17.82;63.53;100800.53;5049987;28;20493;-74
2022/08/12 04:35:17;;;;;;;4.70;3.97;;;;;;;17.92;63.04;100793.06;5061744;28;20519;-85
2022/08/12 04:37:46;;;;;;;5.07;4.33;;;;;;;18.38;62.01;100792.34;5048212;28;20480;-85
2022/08/12 04:40:15;;;;;;;11.87;5.27;;;;;;;18.73;60.65;100796.34;5063682;28;20500;-85
2022/08/12 04:42:44;;;;;;;5.40;4.73;;;;;;;19.14;59.19;100798.72;5054459;28;20461;-84
2022/08/12 04:45:11;;;;;;;7.57;4.77;;;;;;;18.97;59.44;100800.75;5062294;28;20591;-84
2022/08/12 04:47:38;;;;;;;8.43;4.67;;;;;;;18.76;60.37;100793.25;5050833;28;20472;-85
2022/08/12 04:50:06;;;;;;;6.57;4.93;;;;;;;18.43;61.28;100796.19;5060854;28;20487;-85
2022/08/12 04:52:33;;;;;;;8.03;4.93;;;;;;;17.86;62.05;100796.47;5060884;28;20473;-77
2022/08/12 04:55:00;;;;;;;7.80;4.87;;;;;;;17.65;63.10;100800.59;5062177;28;20609;-78
2022/08/12 04:57:27;;;;;;;6.50;5.00;;;;;;;17.54;63.34;100806.34;5042569;28;20482;-78
2022/08/12 04:59:55;;;;;;;12.13;5.57;;;;;;;17.54;63.75;100803.66;5043874;28;20489;-80
2022/08/12 05:02:21;;;;;;;6.00;4.80;;;;;;;17.61;63.91;100804.63;5059550;28;20480;-77
2022/08/12 05:04:49;;;;;;;14.97;5.60;;;;;;;17.44;63.88;100806.53;5062052;28;20440;-77
2022/08/12 05:07:16;;;;;;;6.80;5.33;;;;;;;17.49;64.19;100806.03;5062574;28;20507;-77
2022/08/12 05:09:43;;;;;;;6.20;4.80;;;;;;;18.28;61.81;100798.00;5057239;28;20469;-77
2022/08/12 05:12:11;;;;;;;8.67;4.77;;;;;;;19.71;56.95;100797.28;5047718;28;20505;-78
2022/08/12 05:14:38;;;;;;;8.87;5.13;;;;;;;21.43;52.10;100801.25;5042823;28;20452;-78
2022/08/12 05:17:08;;;;;;;5.23;4.23;;;;;;;22.70;48.49;100791.78;5043398;28;20501;-77
2022/08/12 05:19:35;;;;;;;8.10;4.30;;;;;;;22.85;46.07;100798.94;5058138;28;20473;-79
2022/08/12 05:22:01;;;;;;;6.80;4.17;;;;;;;22.97;46.31;100793.69;5060605;28;20488;-80
2022/08/12 05:24:28;;;;;;;5.63;4.20;;;;;;;23.84;44.22;100794.50;5060559;28;20483;-79
2022/08/12 05:26:55;;;;;;;12.57;4.73;;;;;;;23.52;44.24;100794.31;5055648;28;20527;-80
2022/08/12 05:29:22;;;;;;;6.30;4.80;;;;;;;24.52;42.18;100801.31;5048616;28;20484;-80
2022/08/12 05:31:55;;;;;;;4.60;4.13;;;;;;;24.87;41.10;100788.06;5049255;28;20511;-80
2022/08/12 05:34:24;;;;;;;4.97;4.47;;;;;;;24.04;41.57;100797.13;5047490;28;20453;-80
2022/08/12 05:36:51;;;;;;;8.40;4.30;;;;;;;23.58;42.43;100793.47;5053926;28;20517;-80
2022/08/12 05:39:17;;;;;;;6.50;4.50;;;;;;;23.85;42.60;100796.16;5059391;28;20546;-79
2022/08/12 05:41:44;;;;;;;6.63;4.33;;;;;;;23.82;43.05;100796.59;5061617;28;21025;-80
2022/08/12 05:44:14;;;;;;;6.60;3.90;;;;;;;24.59;41.46;100799.41;5061424;28;21169;-80
2022/08/12 05:46:41;;;;;;;6.30;4.63;;;;;;;24.66;41.25;100799.38;5061718;28;20499;-82
2022/08/12 05:49:08;;;;;;;10.57;4.33;;;;;;;25.72;39.42;100806.66;5063118;28;20515;-82
2022/08/12 05:51:37;;;;;;;6.00;4.57;;;;;;;25.66;38.57;100806.75;5062093;28;20480;-81
2022/08/12 05:54:04;;;;;;;5.30;4.73;;;;;;;25.12;39.65;100806.38;5061974;28;20453;-82
2022/08/12 05:56:33;;;;;;;6.23;3.90;;;;;;;25.52;39.61;100812.38;5053440;28;20572;-81
2022/08/12 05:59:01;;;;;;;4.37;3.97;;;;;;;25.75;38.97;100808.13;5043804;28;20437;-84
2022/08/12 06:01:30;;;;;;;5.70;4.20;;;;;;;25.44;39.41;100812.66;5041466;28;20486;-82
2022/08/12 06:03:58;;;;;;;5.93;4.27;;;;;;;27.37;36.02;100801.00;5042132;28;20481;-80
2022/08/12 06:06:24;;;;;;;6.90;4.97;;;;;;;25.12;39.33;100796.28;5044226;28;20517;-83
2022/08/12 06:08:54;;;;;;;5.40;4.07;;;;;;;25.60;39.22;100805.75;5044182;28;20450;-83
2022/08/12 06:11:21;;;;;;;4.93;4.40;;;;;;;26.62;37.90;100801.59;5046455;28;20470;-83
2022/08/12 06:13:48;;;;;;;6.43;4.00;;;;;;;26.53;38.64;100803.81;5042875;28;20465;-83
2022/08/12 06:16:17;;;;;;;4.90;4.10;;;;;;;27.00;37.32;100803.94;5041890;28;20689;-84
2022/08/12 06:18:44;;;;;;;7.03;4.17;;;;;;;29.16;33.71;100808.44;5043315;28;20460;-82
2022/08/12 06:21:12;;;;;;;4.03;3.73;;;;;;;29.59;32.14;100817.91;5050327;28;20510;-83
2022/08/12 06:23:39;;;;;;;3.97;3.63;;;;;;;29.12;33.72;100815.53;5046070;28;20489;-84
2022/08/12 06:26:10;;;;;;;5.37;3.90;;;;;;;29.50;32.78;100807.59;5059473;28;20790;-82
2022/08/12 06:28:37;;;;;;;7.90;4.20;;;;;;;28.98;33.11;100814.19;5062104;28;20485;-83
2022/08/12 06:31:05;;;;;;;4.30;3.67;;;;;;;28.10;34.39;100815.28;5060627;28;20468;-83
2022/08/12 06:33:32;;;;;;;4.33;3.73;;;;;;;28.34;34.72;100817.94;5048936;28;20500;-84
2022/08/12 06:36:00;;;;;;;4.77;4.20;;;;;;;28.92;33.61;100818.75;5058889;28;20743;-82
2022/08/12 06:38:29;;;;;;;9.17;4.40;;;;;;;29.04;32.87;100819.53;5061826;28;20464;-84
2022/08/12 06:43:45;;;;;;;5.07;3.40;;;;;;;29.76;32.34;100825.34;5066225;28;20440;-84
2022/08/12 06:46:12;;;;;;;6.00;3.60;;;;;;;29.96;32.51;100820.09;5064315;28;20528;-83
2022/08/12 06:48:41;;;;;;;8.43;5.30;;;;;;;30.51;30.41;100828.50;5046035;28;20431;-83
2022/08/12 06:51:09;;;;;;;5.07;3.83;;;;;;;31.05;29.40;100822.13;5058197;28;20511;-83
2022/08/12 06:53:36;;;;;;;3.97;3.63;;;;;;;31.38;29.43;100822.94;5062934;28;20469;-83
2022/08/12 06:56:03;;;;;;;4.40;3.70;;;;;;;29.28;32.13;100828.47;5064696;28;20474;-82
2022/08/12 06:58:31;;;;;;;6.53;4.13;;;;;;;30.43;31.00;100827.00;5064604;28;20453;-83
2022/08/12 07:01:00;;;;;;;4.63;3.33;;;;;;;31.76;28.53;100826.50;5063451;28;21240;-83
2022/08/12 07:03:27;;;;;;;5.83;4.10;;;;;;;30.68;31.10;100839.44;5065891;28;20437;-83
2022/08/12 07:05:55;;;;;;;4.70;3.97;;;;;;;30.70;30.33;100829.78;5065878;28;20473;-83
2022/08/12 07:08:22;;;;;;;5.00;3.83;;;;;;;31.04;30.12;100832.34;5045693;28;20482;-83
2022/08/12 07:10:52;;;;;;;11.27;4.43;;;;;;;30.90;30.13;100823.66;5044406;28;20478;-84
2022/08/12 07:13:19;;;;;;;8.00;3.60;;;;;;;30.10;30.74;100830.75;5046540;28;20457;-84
2022/08/12 07:15:46;;;;;;;15.00;3.80;;;;;;;30.66;29.78;100830.56;5049350;28;20481;-84
2022/08/12 07:18:19;;;;;;;5.60;3.67;;;;;;;32.45;27.21;100833.72;5066059;28;20438;-85
2022/08/12 07:20:47;;;;;;;5.03;3.90;;;;;;;31.47;28.37;100830.44;5065666;28;20480;-83
2022/08/12 07:23:16;;;;;;;5.33;3.53;;;;;;;32.25;28.21;100834.50;5059118;28;20478;-85
2022/08/12 07:25:43;;;;;;;5.93;3.40;;;;;;;32.62;27.53;100841.81;5047003;28;20479;-86
2022/08/12 07:28:12;;;;;;;4.97;3.60;;;;;;;33.65;26.47;100839.06;5065086;28;20454;-83
2022/08/12 07:30:41;;;;;;;4.87;3.47;;;;;;;34.67;25.30;100838.63;5064048;28;20473;-81
2022/08/12 07:33:09;;;;;;;5.20;3.00;;;;;;;32.31;27.52;100843.63;5044585;28;20473;-83
2022/08/12 07:35:44;;;;;;;3.30;3.00;;;;;;;32.47;27.32;100839.81;5056165;28;20539;-83
2022/08/12 07:38:23;;;;;;;7.20;3.10;;;;;;;33.69;24.73;100843.78;5064079;28;20453;-85
2022/08/12 07:40:50;;;;;;;5.60;3.43;;;;;;;32.91;26.24;100838.53;5064471;28;20489;-83
2022/08/12 07:43:17;;;;;;;6.17;3.67;;;;;;;33.34;24.72;100839.09;5067581;28;20450;-84
2022/08/12 07:45:44;;;;;;;4.50;3.13;;;;;;;32.41;26.52;100836.22;5064153;28;20476;-83
2022/08/12 07:48:11;;;;;;;3.93;3.23;;;;;;;33.30;25.43;100840.78;5063537;28;20450;-84
2022/08/12 07:50:39;;;;;;;6.10;2.70;;;;;;;33.25;24.83;100829.72;5044819;28;20461;-85
2022/08/12 07:53:06;;;;;;;4.97;3.00;;;;;;;34.03;23.42;100832.03;5043316;28;20443;-83
2022/08/12 07:55:32;;;;;;;4.60;3.00;;;;;;;33.81;23.22;100832.38;5044007;28;20480;-83
2022/08/12 07:58:01;;;;;;;4.90;2.80;;;;;;;34.28;23.27;100838.59;5047820;28;20761;-82
2022/08/12 08:00:30;;;;;;;4.90;3.23;;;;;;;33.53;23.01;100839.34;5060117;28;20475;-83
2022/08/12 08:02:57;;;;;;;4.53;2.53;;;;;;;32.70;24.33;100837.69;5068382;28;20484;-85
2022/08/12 08:05:25;;;;;;;3.43;2.53;;;;;;;33.06;23.83;100841.31;5067220;28;20467;-84
2022/08/12 08:07:56;;;;;;;4.00;2.60;;;;;;;34.04;22.42;100850.31;5063464;28;20430;-84
2022/08/12 08:10:25;;;;;;;5.57;2.73;;;;;;;34.21;22.14;100838.91;5063848;28;20519;-84
2022/08/12 08:12:53;;;;;;;4.27;2.47;;;;;;;33.96;23.17;100842.59;5060022;28;20486;-84
2022/08/12 08:15:20;;;;;;;6.13;3.37;;;;;;;34.79;22.15;100838.31;5058735;28;20466;-83
2022/08/12 08:17:56;;;;;;;5.07;3.00;;;;;;;35.09;21.59;100839.19;5052392;28;20497;-84
2022/08/12 08:20:27;;;;;;;3.63;2.70;;;;;;;34.75;22.20;100848.31;5063500;28;20481;-82
2022/08/12 08:22:56;;;;;;;2.90;2.70;;;;;;;35.16;22.51;100842.44;5063314;28;20459;-83
2022/08/12 08:25:30;;;;;;;5.63;3.37;;;;;;;36.09;21.02;100835.94;5050192;28;20487;-84
2022/08/12 08:28:01;;;;;;;2.90;2.67;;;;;;;35.77;21.12;100829.09;5046304;28;20471;-85
2022/08/12 08:30:29;;;;;;;5.33;2.37;;;;;;;36.72;20.89;100832.88;5044365;28;20468;-85
2022/08/12 08:32:56;;;;;;;4.87;2.60;;;;;;;36.48;20.49;100835.69;5062301;28;20447;-83
2022/08/12 08:35:23;;;;;;;3.80;2.80;;;;;;;36.91;20.11;100832.00;5063148;28;20456;-83
2022/08/12 08:37:50;;;;;;;3.43;2.67;;;;;;;37.13;19.47;100832.19;5048031;28;20463;-85
2022/08/12 08:43:06;;;;;;;5.83;2.30;;;;;;;38.11;18.51;100826.69;5043171;28;20531;-84
2022/08/12 08:45:32;;;;;;;8.50;2.30;;;;;;;37.59;18.54;100833.31;5043375;28;20472;-84
2022/08/12 08:47:59;;;;;;;5.03;2.60;;;;;;;36.38;19.68;100819.13;5044147;28;20446;-85
2022/08/12 08:50:27;;;;;;;5.10;2.63;;;;;;;37.46;18.24;100822.97;5051910;28;20465;-85
2022/08/12 08:52:54;;;;;;;3.33;2.20;;;;;;;36.97;18.74;100828.00;5043007;28;20481;-83
2022/08/12 08:55:22;;;;;;;3.23;2.03;;;;;;;36.83;19.79;100822.38;5043223;28;20503;-85
2022/08/12 08:57:49;;;;;;;4.47;2.10;;;;;;;36.17;19.33;100818.56;5043068;28;20504;-85
2022/08/12 09:00:17;;;;;;;3.77;2.50;;;;;;;36.36;19.54;100815.84;5042950;28;20504;-86
2022/08/12 09:02:44;;;;;;;5.47;2.27;;;;;;;36.53;17.75;100807.78;5053684;28;20458;-85
2022/08/12 09:05:11;;;;;;;3.50;2.20;;;;;;;37.93;17.24;100814.53;5054260;28;20458;-83
2022/08/12 09:07:43;;;;;;;3.00;2.07;;;;;;;38.54;17.29;100812.34;5063693;28;20496;-83
2022/08/12 09:10:11;;;;;;;3.47;2.30;;;;;;;38.06;17.29;100797.75;5062752;28;20473;-83
2022/08/12 09:15:25;;;;;;;2.10;1.90;;;;;;;38.80;15.94;100793.84;5043180;28;20524;-84
2022/08/12 09:17:54;;;;;;;2.53;1.53;;;;;;;36.87;16.10;100789.97;5043708;28;20444;-84
2022/08/12 09:20:22;;;;;;;1.97;1.77;;;;;;;37.39;15.14;100789.91;5057344;28;20482;-84
2022/08/12 09:22:49;;;;;;;4.80;2.57;;;;;;;36.48;16.25;100796.72;5063117;28;20839;-83
2022/08/12 09:25:17;;;;;;;4.10;1.87;;;;;;;38.04;16.08;100802.03;5062400;28;20469;-84
2022/08/12 09:27:45;;;;;;;4.63;1.60;;;;;;;36.92;15.76;100798.25;5050371;28;20457;-84
2022/08/12 09:30:14;;;;;;;3.23;1.67;;;;;;;36.81;16.83;100795.97;5062778;28;20489;-84
2022/08/12 09:32:42;;;;;;;2.87;1.90;;;;;;;36.56;15.14;100795.19;5047092;28;20473;-85
2022/08/12 09:35:09;;;;;;;4.27;2.40;;;;;;;36.69;16.22;100788.88;5052871;28;21152;-85
2022/08/12 09:37:37;;;;;;;2.23;2.03;;;;;;;37.00;15.54;100781.97;5062774;28;20966;-84
2022/08/12 09:40:05;;;;;;;3.93;1.90;;;;;;;36.29;16.29;100790.31;5061180;28;20480;-85
2022/08/12 09:45:23;;;;;;;2.47;2.10;;;;;;;36.11;16.10;100787.19;5063085;28;20514;-84
2022/08/12 09:47:50;;;;;;;5.40;1.70;;;;;;;36.69;16.15;100790.84;5063240;28;20439;-86
2022/08/12 09:50:17;;;;;;;2.23;1.90;;;;;;;36.88;15.76;100777.69;5057946;28;20441;-85
2022/08/12 09:52:44;;;;;;;2.47;1.80;;;;;;;36.54;15.31;100786.31;5042982;28;20511;-84
2022/08/12 09:55:11;;;;;;;3.47;1.80;;;;;;;36.41;15.42;100787.91;5041540;28;20528;-82
2022/08/12 09:57:37;;;;;;;3.80;1.73;;;;;;;35.71;16.24;100781.03;5058367;28;20447;-82
2022/08/12 10:00:05;;;;;;;5.03;1.63;;;;;;;35.28;16.67;100780.94;5062339;28;20488;-85
2022/08/12 10:02:36;;;;;;;3.33;1.90;;;;;;;35.15;16.35;100782.41;5061443;28;20479;-83
2022/08/12 10:05:03;;;;;;;1.93;1.70;;;;;;;34.89;17.32;100787.38;5050579;28;20483;-83
2022/08/12 10:07:30;;;;;;;2.27;1.90;;;;;;;36.05;16.32;100784.78;5041636;28;20482;-83
2022/08/12 10:09:56;;;;;;;2.10;1.90;;;;;;;36.54;16.55;100781.59;5042026;28;20537;-82
2022/08/12 10:15:08;;;;;;;2.20;2.00;;;;;;;35.10;16.48;100762.19;5052785;28;20475;-84
2022/08/12 10:17:36;;;;;;;4.53;1.97;;;;;;;35.10;16.88;100776.91;5055247;28;20452;-84
2022/08/12 10:20:04;;;;;;;2.20;2.00;;;;;;;35.48;17.39;100774.31;5062059;28;20426;-86
2022/08/12 10:22:30;;;;;;;2.97;2.33;;;;;;;34.87;16.83;100773.78;5061446;28;20843;-84
2022/08/12 10:30:26;;;;;;;2.50;1.90;;;;;;;35.43;16.46;100764.09;5044559;28;20498;-85
2022/08/12 10:32:58;;;;;;;6.57;2.00;;;;;;;35.84;16.67;100768.34;5056221;28;20458;-82
2022/08/12 10:35:31;;;;;;;2.53;2.30;;;;;;;35.16;16.58;100747.13;5040994;28;20436;-82
2022/08/12 10:38:00;;;;;;;2.40;1.80;;;;;;;34.42;17.68;100759.09;5041191;28;20440;-85
2022/08/12 10:40:29;;;;;;;2.10;1.90;;;;;;;34.76;17.90;100749.19;5041845;28;20481;-82
2022/08/12 10:45:41;;;;;;;2.03;1.83;;;;;;;34.87;18.29;100753.50;5060542;28;20519;-82
2022/08/12 10:48:09;;;;;;;3.13;2.00;;;;;;;34.98;17.61;100763.41;5061332;28;20445;-83
2022/08/12 10:50:36;;;;;;;7.60;2.73;;;;;;;34.87;16.82;100748.78;5060041;28;20499;-82
2022/08/12 10:53:06;;;;;;;2.17;1.97;;;;;;;35.73;16.20;100744.56;5061393;28;20466;-82
2022/08/12 10:55:32;;;;;;;5.50;2.13;;;;;;;35.78;16.86;100750.06;5061028;28;20474;-83
2022/08/12 10:58:00;;;;;;;2.63;2.33;;;;;;;34.54;18.21;100749.59;5061248;28;20434;-84
2022/08/12 11:00:27;;;;;;;4.63;2.00;;;;;;;34.87;17.51;100740.44;5047884;28;20463;-86
2022/08/12 11:02:56;;;;;;;2.40;2.03;;;;;;;35.05;17.35;100733.34;5052586;28;20450;-82
2022/08/12 11:05:24;;;;;;;3.27;2.40;;;;;;;35.70;16.38;100736.81;5060026;28;20508;-84
2022/08/12 11:07:54;;;;;;;6.57;2.27;;;;;;;35.74;16.26;100729.53;5061874;28;20435;-87
2022/08/12 11:10:21;;;;;;;2.20;1.93;;;;;;;35.37;17.27;100720.78;5060833;28;20457;-82
2022/08/12 11:12:49;;;;;;;2.83;1.70;;;;;;;35.98;16.84;100716.38;5061131;28;21194;-83
2022/08/12 11:15:20;;;;;;;3.93;2.07;;;;;;;35.56;17.51;100715.25;5050152;28;20466;-82
2022/08/12 11:17:47;;;;;;;2.50;2.13;;;;;;;35.38;18.05;100708.53;5041564;28;20462;-82
2022/08/12 11:20:13;;;;;;;2.93;1.90;;;;;;;36.46;16.84;100709.00;5047695;28;20523;-83
2022/08/12 11:22:41;;;;;;;2.10;1.90;;;;;;;35.50;16.76;100710.88;5061282;28;20474;-84
2022/08/12 11:25:09;;;;;;;2.30;1.87;;;;;;;35.43;17.22;100702.94;5060705;28;20440;-81
2022/08/12 11:27:35;;;;;;;6.33;1.90;;;;;;;35.35;17.55;100706.34;5060650;28;20553;-84
2022/08/12 11:30:02;;;;;;;3.20;2.20;;;;;;;34.80;17.86;100716.91;5064433;28;20540;-85
2022/08/12 11:32:29;;;;;;;3.73;2.00;;;;;;;35.94;16.85;100701.44;5064325;28;21066;-85
2022/08/12 11:34:56;;;;;;;3.00;2.00;;;;;;;35.33;17.31;100697.50;5064312;28;20448;-85
2022/08/12 11:37:24;;;;;;;2.83;1.67;;;;;;;35.28;16.87;100693.91;5064744;28;20510;-82
2022/08/12 11:39:52;;;;;;;2.77;1.67;;;;;;;35.64;16.97;100694.28;5064577;28;20453;-83
2022/08/12 11:42:18;;;;;;;2.83;1.90;;;;;;;35.42;16.89;100686.53;5064156;28;20490;-83
2022/08/12 11:44:45;;;;;;;2.70;1.77;;;;;;;35.63;16.87;100687.91;5065682;28;20458;-85
2022/08/12 11:47:12;;;;;;;3.17;1.80;;;;;;;34.87;17.05;100687.66;5064891;28;20547;-82
2022/08/12 11:49:38;;;;;;;3.93;2.17;;;;;;;35.54;17.30;100680.56;5064363;28;20435;-83
2022/08/12 11:52:05;;;;;;;4.10;1.43;;;;;;;35.26;17.31;100686.72;5064330;28;20991;-83
2022/08/12 11:54:32;;;;;;;3.47;1.70;;;;;;;34.84;17.98;100684.63;5064834;28;20474;-83
2022/08/12 11:57:01;;;;;;;2.77;1.73;;;;;;;34.40;17.77;100669.72;5063766;28;20502;-84
2022/08/12 11:59:28;;;;;;;3.00;1.77;;;;;;;34.85;17.54;100664.91;5059796;28;20452;-85
2022/08/12 12:01:55;;;;;;;1.80;1.60;;;;;;;34.64;18.42;100669.81;5047171;28;20476;-84
2022/08/12 12:04:22;;;;;;;7.87;2.23;;;;;;;35.52;17.95;100668.88;5064739;28;20447;-84
2022/08/12 12:06:48;;;;;;;7.53;2.03;;;;;;;35.37;17.82;100664.34;5064052;28;20473;-82
2022/08/12 12:09:15;;;;;;;2.37;1.90;;;;;;;34.91;17.66;100659.28;5060897;28;20467;-84
2022/08/12 12:11:42;;;;;;;1.80;1.60;;;;;;;34.33;18.13;100656.19;5063400;28;20861;-83
2022/08/12 12:14:10;;;;;;;3.30;1.83;;;;;;;34.09;17.30;100653.28;5055939;28;20755;-84
2022/08/12 12:16:37;;;;;;;3.60;2.10;;;;;;;33.24;18.82;100647.91;5045760;28;20486;-83
2022/08/12 12:19:04;;;;;;;10.53;1.90;;;;;;;32.74;19.04;100651.34;5063732;28;20503;-84
2022/08/12 12:21:31;;;;;;;4.40;1.63;;;;;;;32.90;18.12;100651.28;5056743;28;20486;-83
2022/08/12 12:23:58;;;;;;;3.73;1.80;;;;;;;32.60;19.38;100642.78;5063976;28;20457;-83
2022/08/12 12:26:24;;;;;;;4.00;1.80;;;;;;;32.40;20.42;100651.06;5062754;28;20469;-84
2022/08/12 12:28:51;;;;;;;3.70;2.23;;;;;;;32.06;18.77;100646.06;5063480;28;20489;-85
2022/08/12 12:31:19;;;;;;;2.43;1.73;;;;;;;32.23;20.28;100648.56;5063860;28;20523;-84
2022/08/12 12:33:46;;;;;;;2.50;2.13;;;;;;;32.10;19.23;100641.66;5063409;28;20489;-82
2022/08/12 12:36:17;;;;;;;1.87;1.67;;;;;;;31.97;19.86;100637.44;5063142;28;20478;-81
2022/08/12 12:38:44;;;;;;;7.70;2.20;;;;;;;31.81;19.39;100633.81;5058371;28;20455;-82
2022/08/12 12:41:10;;;;;;;1.97;1.80;;;;;;;31.58;19.78;100637.06;5056431;28;20477;-81
2022/08/12 12:43:37;;;;;;;4.00;1.80;;;;;;;32.27;20.79;100644.97;5044581;28;20516;-81
2022/08/12 12:46:04;;;;;;;2.20;1.70;;;;;;;32.18;21.04;100635.56;5061626;28;20540;-81
2022/08/12 12:48:32;;;;;;;3.43;1.70;;;;;;;32.25;20.55;100632.53;5047691;28;20470;-82
2022/08/12 12:51:17;;;;;;;3.43;2.33;;;;;;;32.04;20.38;100623.34;5062608;28;20492;-81
2022/08/12 12:53:45;;;;;;;3.20;1.67;;;;;;;31.75;20.20;100617.50;5062530;28;20461;-82
2022/08/12 12:56:16;;;;;;;2.50;1.77;;;;;;;31.26;19.65;100625.03;5062627;28;20523;-83
2022/08/12 12:58:43;;;;;;;2.40;1.87;;;;;;;31.42;19.33;100630.63;5055521;28;21128;-82
2022/08/12 13:01:11;;;;;;;2.97;1.70;;;;;;;31.27;19.59;100618.44;5043140;28;20464;-82
2022/08/12 13:03:39;;;;;;;2.60;1.77;;;;;;;31.92;19.93;100623.59;5051841;28;20454;-81
2022/08/12 13:06:07;;;;;;;3.07;1.70;;;;;;;32.19;19.58;100633.63;5063425;28;20626;-82
2022/08/12 13:08:34;;;;;;;3.40;1.50;;;;;;;31.72;19.08;100625.25;5049937;28;20473;-83
2022/08/12 13:11:02;;;;;;;2.57;2.03;;;;;;;32.21;19.27;100620.34;5055484;28;20507;-83
2022/08/12 13:13:30;;;;;;;2.67;1.73;;;;;;;32.30;19.78;100613.16;5063001;28;20522;-83
2022/08/12 13:16:00;;;;;;;5.80;2.17;;;;;;;32.14;19.20;100615.09;5062934;28;20501;-81
2022/08/12 13:18:35;;;;;;;1.63;1.33;;;;;;;32.27;20.14;100613.69;5050777;28;20453;-81